Main page
METAR-TAF:

METAR-TAF

Airports :

Florence, Italy

Florence Airport

latitude: 43-48N, longitude: 011-12E, elevation: 40 m

Current weather observation

The report was made 37 minutes ago, at 18:50 UTC
Wind 3 kt from the West, varying between South/Southwest and North
Temperature 18°C
Humidity 83%
Pressure 1020 hPa
Visibility 10 km or more
Few clouds at a height of 5000 ft

METAR: LIRQ 211850Z 27003KT 210V010 9999 FEW050 18/15 Q1020

Time: 21:27 (19:27 UTC)

Forecast

The report was made 2 hours and 27 minutes ago, at 17:00 UTC
Forecast valid from 21 at 18 UTC to 22 at 18 UTC
Wind 6 kt from variable directions
Visibility 10 km or more
Broken clouds at a height of 4000 ft
Temporary
from 22 at 03 UTC to 22 at 12 UTC
rain showers
Becoming
from 22 at 08 UTC to 22 at 10 UTC
Wind 15 kt from the West/Southwest
Temporary
from 22 at 15 UTC to 22 at 18 UTC
Wind 18 kt from the West/Southwest with gusts up to 28 kt

TAF: LIRQ 211700Z 2118/2218 VRB06KT 9999 BKN040 TEMPO 2203/2212 SHRA BECMG 2208/2210 24015KT TEMPO 2215/2218 25018G28KT

Weather observations and forecasts of more than 4000 airports (METAR and TAF reports).

The available stations are represented by yellow and red dots on the map.

Hover mouse over dot to see the name of the station.

Then click to see weather observations and forecasts.

To change the map : click on the green buttons with a black cross to zoom in, on the green button with a dash to zoom out, or on the green arrows for adjacent maps.


METAR-TAF: